TFM - Tactical Decision Aid
ID: Runway Winds: CIG/VIS Threshold:

KMKE - Milwaukee/Mitchell I, WI, US

Updated at: 0403 UTC 30 Jun 2022
Latest TAF at: 0308 UTC 30 Jun 2022

TAF Board

Time0352Z 30/05Z 30/06Z 30/07Z 30/08Z 30/09Z 30/10Z 30/11Z 30/12Z 30/13Z 30/14Z 30/15Z 30/16Z 30/17Z>>
Type OBS PRVL PRVL PRVL PRVL PRVL PRVL PRVL PRVL PRVL PRVL PRVL PRVL PRVL
VIS 10 >6 >6 >6 >6 >6 >6 >6 >6 >6 >6 >6 >6 >6
CIG -- -- -- -- -- -- -- -- -- -- -- -- -- --
Cover CLR SKC SKC SKC FEW FEW FEW FEW FEW FEW FEW FEW FEW FEW
FltCat VFR VFR VFR VFR VFR VFR VFR VFR VFR VFR VFR VFR VFR VFR
WX -- -- -- -- -- -- -- -- -- -- -- -- -- --
WDir 130 150 150 150 190 190 190 190 190 220 220 220 220 220
WSpd 4 6 6 6 6 6 6 6 6 12 12 12 12 12
WGst -- -- -- -- -- -- -- -- -- 24 24 24 24 24
WSHgt -- -- -- -- 2000 2000 2000 2000 2000 -- -- -- -- --
WSDir -- -- -- -- 230 230 230 230 230 -- -- -- -- --
WSSpd -- -- -- -- 40 40 40 40 40 -- -- -- -- --
R01/19
XWnd -3 -4 -4 -4 0 0 0 0 0 7 7 7 7 7
XGst -- -- -- -- -- -- -- -- -- 13 13 13 13 13
HWnd -2 -5 -5 -5 -6 -6 -6 -6 -6 -10 -10 -10 -10 -10
HGst -- -- -- -- -- -- -- -- -- -20 -20 -20 -20 -20
R07/25
XWnd -3 -6 -6 -6 -5 -5 -5 -5 -5 -6 -6 -6 -6 -6
XGst -- -- -- -- -- -- -- -- -- -13 -13 -13 -13 -13
HWnd 2 1 1 1 -3 -3 -3 -3 -3 -10 -10 -10 -10 -10
HGst -- -- -- -- -- -- -- -- -- -20 -20 -20 -20 -20
R13/31
XWnd 0 -2 -2 -2 -5 -5 -5 -5 -5 -12 -12 -12 -12 -12
XGst -- -- -- -- -- -- -- -- -- -24 -24 -24 -24 -24
HWnd 4 6 6 6 3 3 3 3 3 0 0 0 0 0
HGst -- -- -- -- -- -- -- -- -- 1 1 1 1 1

TDA Impact Legend

  None Marginal Slight Moderate High
Visibility (sm) >5 2.9≤X≤5 0.9≤X<2.9 <0.9
Ceiling (100 ft) >30 9.9≤X≤30 4.9≤X<9.9 <4.9
Wind Speed (kt) <15 15≤X<25 25≤X<30 ≥30
Wind Gust (kt) <15 15≤X<25 25≤X<35 ≥35
Weather No Wx Reported VCTS -TS,-FZRA TS,FZRA +TS,+FZRA
TAF
KMKE 300308Z 3003/0106 15006KT P6SM SKC
  FM300800 19006KT P6SM FEW210 WS020/23040KT
  FM301300 22012G24KT P6SM FEW250


METAR
KMKE 300352Z 13004KT 10SM CLR 18/16 A3011 RMK AO2 SLP193 T01830161
KMKE 300252Z 15006KT 10SM CLR 18/16 A3012 RMK AO2 SLP197 T01830161 56008
KMKE 300152Z 11005KT 10SM CLR 18/16 A3012 RMK AO2 SLP197 T01780156
KMKE 300052Z 08006KT 10SM FEW250 19/15 A3013 RMK AO2 SLP201 T01940150

Radar Display
Forecast Discussion